createdAt,value
2019-06-20T00:00:05.715Z,21.58
2019-06-20T00:01:05.718Z,21.55
2019-06-20T00:02:05.730Z,21.45
2019-06-20T00:03:06.007Z,21.54
2019-06-20T00:04:05.523Z,21.46
2019-06-20T00:05:05.969Z,21.54
2019-06-20T00:06:05.716Z,21.43
2019-06-20T00:07:05.728Z,21.48
2019-06-20T00:08:05.842Z,21.6
2019-06-20T00:09:05.695Z,21.73
2019-06-20T00:10:05.802Z,21.67
2019-06-20T00:11:05.802Z,21.77
2019-06-20T00:12:05.814Z,21.7
2019-06-20T00:13:06.086Z,21.66
2019-06-20T00:14:05.714Z,21.67
2019-06-20T00:15:05.971Z,21.7
2019-06-20T00:16:06.030Z,21.7
2019-06-20T00:17:05.727Z,21.61
2019-06-20T00:18:05.972Z,21.6
2019-06-20T00:19:06.325Z,21.6
2019-06-20T00:20:05.737Z,21.51
2019-06-20T00:21:06.087Z,21.45
2019-06-20T00:22:05.993Z,21.35
2019-06-20T00:23:05.744Z,21.25
2019-06-20T00:24:05.510Z,21.21
2019-06-20T00:25:07.835Z,21.37
2019-06-20T00:26:05.850Z,21.29
2019-06-20T00:27:05.759Z,21.24
2019-06-20T00:28:05.629Z,21.22
2019-06-20T00:29:06.048Z,21.25
2019-06-20T00:30:05.764Z,21.22
2019-06-20T00:31:05.754Z,21.24
2019-06-20T00:32:05.776Z,21.25
2019-06-20T00:33:06.010Z,21.25
2019-06-20T00:34:05.493Z,21.21
2019-06-20T00:35:06.006Z,21.27
2019-06-20T00:36:05.748Z,21.3
2019-06-20T00:37:05.779Z,21.4
2019-06-20T00:38:05.829Z,21.25
2019-06-20T00:39:06.025Z,21.25
2019-06-20T00:40:05.600Z,21.37
2019-06-20T00:41:06.054Z,21.37
2019-06-20T00:42:05.998Z,21.27
2019-06-20T00:43:21.172Z,21.29
2019-06-20T00:44:06.080Z,21.24
2019-06-20T00:45:06.007Z,21.17
2019-06-20T00:46:06.041Z,21.25
2019-06-20T00:47:05.776Z,21.2
2019-06-20T00:48:06.124Z,21.14
2019-06-20T00:49:05.783Z,21.22
2019-06-20T00:50:05.888Z,21.25
2019-06-20T00:51:05.793Z,21.32
2019-06-20T00:52:05.532Z,21.32
2019-06-20T00:53:05.776Z,21.2
2019-06-20T00:54:05.830Z,21.22
2019-06-20T00:55:05.785Z,21.3
2019-06-20T00:56:05.916Z,21.22
2019-06-20T00:57:06.107Z,21.11
2019-06-20T00:58:05.799Z,21.12
2019-06-20T00:59:05.546Z,20.99
2019-06-20T01:00:06.094Z,21.03
2019-06-20T01:01:06.115Z,21.06
2019-06-20T01:02:05.801Z,21.06
2019-06-20T01:03:06.087Z,21.03
2019-06-20T01:04:05.807Z,21.06
2019-06-20T01:05:05.792Z,21.02
2019-06-20T01:06:06.184Z,20.97
2019-06-20T01:07:06.060Z,21.02
2019-06-20T01:08:06.090Z,21.05
2019-06-20T01:09:05.907Z,20.93
2019-06-20T01:10:06.325Z,21.02
2019-06-20T01:11:05.809Z,20.95
2019-06-20T01:12:06.139Z,20.92
2019-06-20T01:13:05.817Z,20.9
2019-06-20T01:14:06.064Z,20.96
2019-06-20T01:15:05.885Z,20.9
2019-06-20T01:16:05.800Z,20.92
2019-06-20T01:17:05.846Z,20.93
2019-06-20T01:18:05.808Z,20.85
2019-06-20T01:19:05.560Z,20.84
2019-06-20T01:20:06.306Z,20.8
2019-06-20T01:21:06.085Z,20.81
2019-06-20T01:22:05.605Z,20.78
2019-06-20T01:23:05.817Z,20.69
2019-06-20T01:24:06.141Z,20.65
2019-06-20T01:25:05.555Z,20.55
2019-06-20T01:26:06.108Z,20.55
2019-06-20T01:27:06.089Z,20.55
2019-06-20T01:28:06.328Z,20.41
2019-06-20T01:29:05.584Z,20.37
2019-06-20T01:30:05.870Z,20.34
2019-06-20T01:31:05.827Z,20.34
2019-06-20T01:32:06.108Z,20.37
2019-06-20T01:33:06.104Z,20.39
2019-06-20T01:34:05.859Z,20.37
2019-06-20T01:35:06.125Z,20.32
2019-06-20T01:36:06.094Z,20.34
2019-06-20T01:37:05.842Z,20.48
2019-06-20T01:38:06.091Z,20.58
2019-06-20T01:39:06.087Z,20.62
2019-06-20T01:40:06.170Z,20.62
2019-06-20T01:41:10.601Z,20.55
2019-06-20T01:42:05.940Z,20.58
2019-06-20T01:43:05.866Z,20.56
2019-06-20T01:44:05.589Z,20.62
2019-06-20T01:45:06.112Z,20.52
2019-06-20T01:46:09.379Z,20.58
2019-06-20T01:47:06.338Z,20.41
2019-06-20T01:48:06.053Z,20.4
2019-06-20T01:49:06.081Z,20.36
2019-06-20T01:50:05.828Z,20.32
2019-06-20T01:51:05.828Z,20.37
2019-06-20T01:52:06.351Z,20.4
2019-06-20T01:53:05.896Z,20.43
2019-06-20T01:54:07.880Z,20.43
2019-06-20T01:55:06.093Z,20.52
2019-06-20T01:56:06.094Z,20.48
2019-06-20T01:57:05.832Z,20.48
2019-06-20T01:58:06.114Z,20.58
2019-06-20T01:59:05.861Z,20.58
2019-06-20T02:00:06.305Z,20.55
2019-06-20T02:01:05.824Z,20.67
2019-06-20T02:02:06.076Z,20.7
2019-06-20T02:03:06.077Z,20.7
2019-06-20T02:04:06.090Z,20.69
2019-06-20T02:05:06.211Z,20.65
2019-06-20T02:06:05.828Z,20.62
2019-06-20T02:07:05.867Z,20.63
2019-06-20T02:08:06.235Z,20.6
2019-06-20T02:09:06.152Z,20.5
2019-06-20T02:10:06.122Z,20.51
2019-06-20T02:11:06.090Z,20.5
2019-06-20T02:12:06.150Z,20.51
2019-06-20T02:13:06.113Z,20.51
2019-06-20T02:14:12.267Z,20.43
2019-06-20T02:15:06.203Z,20.43
2019-06-20T02:16:06.112Z,20.4
2019-06-20T02:17:05.854Z,20.44
2019-06-20T02:18:05.599Z,20.55
2019-06-20T02:19:05.832Z,20.55
2019-06-20T02:20:06.123Z,20.62
2019-06-20T02:21:05.610Z,20.66
2019-06-20T02:22:05.849Z,20.69
2019-06-20T02:23:05.908Z,20.56
2019-06-20T02:24:05.863Z,20.59
2019-06-20T02:25:05.857Z,20.59
2019-06-20T02:26:05.856Z,20.56
2019-06-20T02:27:06.264Z,20.52
2019-06-20T02:28:06.111Z,20.56
2019-06-20T02:29:05.859Z,20.52
2019-06-20T02:30:06.126Z,20.52
2019-06-20T02:31:06.151Z,20.55
2019-06-20T02:32:06.106Z,20.55
2019-06-20T02:33:06.112Z,20.48
2019-06-20T02:34:05.867Z,20.41
2019-06-20T02:35:05.879Z,20.5
2019-06-20T02:36:06.142Z,20.4
2019-06-20T02:37:06.115Z,20.41
2019-06-20T02:38:06.114Z,20.34
2019-06-20T02:39:06.166Z,20.37
2019-06-20T02:40:06.131Z,20.41
2019-06-20T02:41:06.171Z,20.5
2019-06-20T02:42:06.130Z,20.43
2019-06-20T02:43:05.873Z,20.37
2019-06-20T02:44:05.894Z,20.36
2019-06-20T02:45:06.159Z,20.36
2019-06-20T02:46:06.120Z,20.32
2019-06-20T02:47:05.648Z,20.29
2019-06-20T02:48:05.904Z,20.36
2019-06-20T02:49:06.129Z,20.31
2019-06-20T02:50:05.889Z,20.29
2019-06-20T02:51:06.137Z,20.29
2019-06-20T02:52:06.164Z,20.25
2019-06-20T02:53:06.147Z,20.21
2019-06-20T02:54:06.164Z,20.26
2019-06-20T02:55:08.522Z,20.19
2019-06-20T02:56:06.163Z,20.21
2019-06-20T02:57:06.148Z,20.06
2019-06-20T02:58:05.969Z,20.09
2019-06-20T02:59:06.264Z,20.04
2019-06-20T03:00:06.322Z,20.06
2019-06-20T03:01:05.909Z,20.04
2019-06-20T03:02:05.907Z,20.11
2019-06-20T03:03:06.195Z,20.18
2019-06-20T03:04:06.166Z,20.16
2019-06-20T03:05:06.187Z,20.22
2019-06-20T03:06:05.664Z,20.22
2019-06-20T03:07:06.164Z,20.18
2019-06-20T03:08:05.928Z,20.14
2019-06-20T03:09:06.169Z,20.13
2019-06-20T03:10:06.222Z,20.06
2019-06-20T03:11:05.904Z,20.13
2019-06-20T03:12:06.191Z,20.02
2019-06-20T03:13:08.736Z,20.09
2019-06-20T03:14:06.151Z,20.03
2019-06-20T03:15:06.183Z,20.02
2019-06-20T03:16:06.169Z,19.95
2019-06-20T03:17:06.169Z,19.95
2019-06-20T03:18:06.161Z,19.88
2019-06-20T03:19:06.154Z,19.88
2019-06-20T03:20:06.153Z,19.95
2019-06-20T03:21:05.914Z,19.92
2019-06-20T03:22:05.958Z,19.85
2019-06-20T03:23:06.179Z,19.96
2019-06-20T03:24:05.718Z,20.02
2019-06-20T03:25:06.285Z,19.92
2019-06-20T03:26:05.941Z,20
2019-06-20T03:27:06.159Z,19.99
2019-06-20T03:28:05.722Z,19.96
2019-06-20T03:29:06.156Z,19.92
2019-06-20T03:30:06.174Z,19.91
2019-06-20T03:31:06.216Z,19.84
2019-06-20T03:32:06.213Z,19.88
2019-06-20T03:33:06.196Z,19.74
2019-06-20T03:34:05.968Z,19.74
2019-06-20T03:35:06.173Z,19.7
2019-06-20T03:36:06.380Z,19.64
2019-06-20T03:37:06.178Z,19.58
2019-06-20T03:38:06.174Z,19.63
2019-06-20T03:39:06.165Z,19.7
2019-06-20T03:40:06.301Z,19.73
2019-06-20T03:41:06.165Z,19.67
2019-06-20T03:42:06.175Z,19.7
2019-06-20T03:43:06.167Z,19.73
2019-06-20T03:44:06.175Z,19.7
2019-06-20T03:45:07.217Z,19.64
2019-06-20T03:46:06.182Z,19.66
2019-06-20T03:47:05.955Z,19.73
2019-06-20T03:48:06.229Z,19.7
2019-06-20T03:49:06.176Z,19.67
2019-06-20T03:50:05.713Z,19.64
2019-06-20T03:51:05.955Z,19.56
2019-06-20T03:52:05.934Z,19.66
2019-06-20T03:53:05.959Z,19.59
2019-06-20T03:54:05.929Z,19.63
2019-06-20T03:55:06.517Z,19.71
2019-06-20T03:56:06.179Z,19.66
2019-06-20T03:57:05.929Z,19.71
2019-06-20T03:58:05.707Z,19.82
2019-06-20T03:59:06.189Z,19.82
2019-06-20T04:00:06.178Z,19.95
2019-06-20T04:01:06.191Z,19.94
2019-06-20T04:02:05.954Z,20.06
2019-06-20T04:03:06.011Z,20.09
2019-06-20T04:04:05.960Z,20.03
2019-06-20T04:05:06.094Z,20.03
2019-06-20T04:06:05.944Z,20.04
2019-06-20T04:07:06.204Z,20.03
2019-06-20T04:08:05.974Z,19.95
2019-06-20T04:09:06.203Z,19.99
2019-06-20T04:10:06.199Z,19.96
2019-06-20T04:11:06.189Z,19.96
2019-06-20T04:12:06.197Z,19.96
2019-06-20T04:13:06.016Z,19.95
2019-06-20T04:14:06.208Z,19.99
2019-06-20T04:15:22.881Z,19.99
2019-06-20T04:16:06.228Z,19.91
2019-06-20T04:17:06.230Z,19.91
2019-06-20T04:18:06.081Z,19.91
2019-06-20T04:19:06.195Z,19.96
2019-06-20T04:20:06.252Z,19.91
2019-06-20T04:21:06.204Z,20
2019-06-20T04:22:06.005Z,20.09
2019-06-20T04:23:05.996Z,19.92
2019-06-20T04:24:05.970Z,19.88
2019-06-20T04:25:06.214Z,19.82
2019-06-20T04:26:05.723Z,19.71
2019-06-20T04:27:06.203Z,19.62
2019-06-20T04:28:06.214Z,19.51
2019-06-20T04:29:05.973Z,19.45
2019-06-20T04:30:05.975Z,19.41
2019-06-20T04:31:05.980Z,19.39
2019-06-20T04:32:05.749Z,19.34
2019-06-20T04:33:05.967Z,19.31
2019-06-20T04:34:06.002Z,19.31
2019-06-20T04:35:05.743Z,19.3
2019-06-20T04:36:06.142Z,19.24
2019-06-20T04:37:05.987Z,19.27
2019-06-20T04:38:05.959Z,19.22
2019-06-20T04:39:21.130Z,19.3
2019-06-20T04:40:06.021Z,19.37
2019-06-20T04:41:06.208Z,19.26
2019-06-20T04:42:05.971Z,19.22
2019-06-20T04:43:06.245Z,19.21
2019-06-20T04:44:06.267Z,19.18
2019-06-20T04:45:05.986Z,19.21
2019-06-20T04:46:05.741Z,19.21
2019-06-20T04:47:06.057Z,19.09
2019-06-20T04:48:05.989Z,19.08
2019-06-20T04:49:05.801Z,18.93
2019-06-20T04:50:05.914Z,18.83
2019-06-20T04:51:05.755Z,18.71
2019-06-20T04:52:06.026Z,18.6
2019-06-20T04:53:06.224Z,18.59
2019-06-20T04:54:06.010Z,18.45
2019-06-20T04:55:06.255Z,18.49
2019-06-20T04:56:10.055Z,18.41
2019-06-20T04:57:05.820Z,18.49
2019-06-20T04:58:05.992Z,18.74
2019-06-20T04:59:06.003Z,18.75
2019-06-20T05:00:06.259Z,18.83
2019-06-20T05:01:06.017Z,18.98
2019-06-20T05:02:06.416Z,18.92
2019-06-20T05:03:05.754Z,19.02
2019-06-20T05:04:05.972Z,19.07
2019-06-20T05:05:06.256Z,19.07
2019-06-20T05:06:06.241Z,19.11
2019-06-20T05:07:06.006Z,19.11
2019-06-20T05:08:06.311Z,19.04
2019-06-20T05:09:06.031Z,19.07
2019-06-20T05:10:05.974Z,19.14
2019-06-20T05:11:06.033Z,19.16
2019-06-20T05:12:05.756Z,19.15
2019-06-20T05:13:06.471Z,19.14
2019-06-20T05:14:06.233Z,19.15
2019-06-20T05:15:06.516Z,19.07
2019-06-20T05:16:05.751Z,18.96
2019-06-20T05:17:09.628Z,18.92
2019-06-20T05:18:06.220Z,19
2019-06-20T05:19:05.979Z,18.96
2019-06-20T05:20:05.802Z,18.99
2019-06-20T05:21:06.818Z,19.08
2019-06-20T05:22:06.238Z,19.07
2019-06-20T05:23:05.981Z,19.15
2019-06-20T05:24:06.016Z,19.07
2019-06-20T05:25:05.991Z,19.07
2019-06-20T05:26:06.008Z,19.12
2019-06-20T05:27:05.990Z,19.14
2019-06-20T05:28:06.008Z,19.09
2019-06-20T05:29:10.112Z,19.12
2019-06-20T05:30:06.646Z,19.19
2019-06-20T05:31:05.778Z,19.15
2019-06-20T05:32:06.277Z,19.16
2019-06-20T05:33:05.763Z,19.12
2019-06-20T05:34:05.784Z,19.09
2019-06-20T05:35:07.389Z,19.11
2019-06-20T05:36:05.756Z,19.16
2019-06-20T05:37:05.804Z,19.22
2019-06-20T05:38:06.253Z,19.21
2019-06-20T05:39:06.326Z,19.37
2019-06-20T05:40:06.295Z,19.44
2019-06-20T05:41:05.756Z,19.48
2019-06-20T05:42:06.030Z,19.45
2019-06-20T05:43:05.991Z,19.58
2019-06-20T05:44:06.260Z,19.63
2019-06-20T05:45:06.260Z,19.7
2019-06-20T05:46:14.677Z,19.77
2019-06-20T05:47:17.101Z,19.84
2019-06-20T05:48:06.269Z,19.91
2019-06-20T05:49:06.239Z,19.84
2019-06-20T05:50:06.449Z,19.86
2019-06-20T05:51:06.283Z,19.92
2019-06-20T05:52:06.240Z,19.81
2019-06-20T05:53:06.029Z,19.73
2019-06-20T05:54:06.906Z,19.82
2019-06-20T05:55:06.263Z,19.84
2019-06-20T05:56:06.255Z,19.91
2019-06-20T05:57:09.316Z,20.03
2019-06-20T05:58:06.261Z,20.31
2019-06-20T05:59:06.256Z,20.66
2019-06-20T06:00:06.305Z,21.06
2019-06-20T06:01:06.034Z,21.51
2019-06-20T06:02:07.033Z,21.89
2019-06-20T06:03:09.492Z,22.53
2019-06-20T06:04:06.073Z,23.18
2019-06-20T06:05:06.538Z,23.63
2019-06-20T06:06:06.257Z,24.16
2019-06-20T06:07:06.022Z,24.6
2019-06-20T06:08:05.989Z,25.01
2019-06-20T06:09:06.539Z,25.26
2019-06-20T06:10:09.260Z,25.5
2019-06-20T06:11:05.789Z,25.35
2019-06-20T06:12:06.131Z,25.13
2019-06-20T06:13:06.070Z,24.91
2019-06-20T06:14:06.059Z,24.53
2019-06-20T06:15:07.338Z,24.28
2019-06-20T06:16:06.095Z,24.29
2019-06-20T06:17:06.081Z,24.3
2019-06-20T06:18:06.311Z,24.54
2019-06-20T06:19:06.327Z,24.86
2019-06-20T06:20:06.341Z,25.26
2019-06-20T06:21:05.860Z,25.69
2019-06-20T06:22:06.132Z,26.06
2019-06-20T06:23:06.391Z,26.44
2019-06-20T06:24:06.360Z,26.81
2019-06-20T06:25:06.162Z,26.97
2019-06-20T06:26:06.136Z,26.83
2019-06-20T06:27:06.134Z,26.73
2019-06-20T06:28:05.911Z,26.47
2019-06-20T06:29:06.733Z,26.06
2019-06-20T06:30:06.476Z,25.69
2019-06-20T06:31:06.128Z,25.59
2019-06-20T06:32:06.468Z,25.48
2019-06-20T06:33:06.451Z,25.33
2019-06-20T06:34:06.178Z,25.43
2019-06-20T06:35:06.622Z,25.4
2019-06-20T06:36:06.456Z,25.38
2019-06-20T06:37:06.451Z,25.36
2019-06-20T06:38:06.183Z,25.53
2019-06-20T06:39:06.178Z,25.65
2019-06-20T06:40:06.569Z,25.68
2019-06-20T06:41:06.418Z,25.8
2019-06-20T06:42:05.936Z,25.63
2019-06-20T06:43:06.467Z,25.72
2019-06-20T06:44:08.408Z,25.81
2019-06-20T06:45:06.449Z,25.73
2019-06-20T06:46:06.271Z,25.66
2019-06-20T06:47:06.457Z,25.54
2019-06-20T06:48:06.195Z,25.35
2019-06-20T06:49:06.492Z,25.18
2019-06-20T06:50:06.231Z,25.1
2019-06-20T06:51:06.827Z,24.91
2019-06-20T06:52:06.228Z,24.7
2019-06-20T06:53:06.466Z,24.65
2019-06-20T06:54:06.016Z,24.58
2019-06-20T06:55:06.246Z,24.6
2019-06-20T06:56:06.290Z,24.58
2019-06-20T06:57:06.404Z,24.69
2019-06-20T06:58:06.488Z,24.84
2019-06-20T06:59:06.258Z,24.86
2019-06-20T07:00:06.516Z,24.98
2019-06-20T07:01:10.056Z,25.08
2019-06-20T07:02:06.512Z,25.18
2019-06-20T07:03:06.536Z,25.33
2019-06-20T07:04:06.546Z,25.55
2019-06-20T07:05:06.840Z,25.6
2019-06-20T07:06:06.067Z,25.9
2019-06-20T07:07:06.298Z,26.29
2019-06-20T07:08:06.585Z,26.62
2019-06-20T07:09:06.561Z,26.85
2019-06-20T07:10:06.679Z,27.08
2019-06-20T07:11:06.332Z,27.26
2019-06-20T07:12:07.176Z,27.49
2019-06-20T07:13:06.571Z,27.3
2019-06-20T07:14:06.376Z,27.03
2019-06-20T07:15:06.598Z,26.96
2019-06-20T07:16:06.620Z,27.1
2019-06-20T07:17:06.585Z,27.51
2019-06-20T07:18:06.363Z,27.85
2019-06-20T07:19:06.110Z,28.1
2019-06-20T07:20:06.128Z,28.48
2019-06-20T07:21:06.195Z,29.02
2019-06-20T07:22:06.803Z,29.13
2019-06-20T07:23:06.636Z,29.19
2019-06-20T07:24:06.383Z,29.19
2019-06-20T07:25:06.656Z,28.98
2019-06-20T07:26:06.665Z,28.75
2019-06-20T07:27:06.162Z,28.54
2019-06-20T07:28:06.669Z,28.47
2019-06-20T07:29:06.465Z,28.15
2019-06-20T07:30:06.674Z,27.77
2019-06-20T07:31:06.437Z,27.4
2019-06-20T07:32:06.708Z,27.3
2019-06-20T07:33:06.513Z,27.25
2019-06-20T07:34:06.701Z,27.17
2019-06-20T07:35:06.244Z,27.12
2019-06-20T07:36:06.625Z,27.03
2019-06-20T07:37:06.468Z,27.11
2019-06-20T07:38:06.604Z,27.32
2019-06-20T07:39:06.474Z,27.71
2019-06-20T07:40:06.493Z,28.14
2019-06-20T07:41:06.732Z,28.48
2019-06-20T07:42:06.499Z,28.78
2019-06-20T07:43:06.767Z,29.23
2019-06-20T07:44:06.777Z,29.53
2019-06-20T07:45:06.877Z,29.88
2019-06-20T07:46:07.843Z,30.31
2019-06-20T07:47:21.419Z,30.75
2019-06-20T07:48:06.546Z,30.92
2019-06-20T07:49:06.798Z,31.28
2019-06-20T07:50:06.571Z,31.33
2019-06-20T07:51:06.803Z,31.42
2019-06-20T07:52:06.590Z,31.34
2019-06-20T07:53:07.813Z,31.27
2019-06-20T07:54:06.593Z,31.4
2019-06-20T07:55:07.036Z,31.55
2019-06-20T07:56:09.365Z,31.85
2019-06-20T07:57:06.877Z,32.07
2019-06-20T07:58:06.376Z,32.14
2019-06-20T07:59:06.624Z,32.19
2019-06-20T08:00:06.856Z,32.16
2019-06-20T08:01:06.918Z,32.33
2019-06-20T08:02:06.938Z,32.4
2019-06-20T08:03:06.693Z,32.46
2019-06-20T08:04:07.077Z,32.38
2019-06-20T08:05:07.096Z,32.21
2019-06-20T08:06:06.933Z,32.04
2019-06-20T08:07:06.960Z,31.62
2019-06-20T08:08:07.003Z,31.09
2019-06-20T08:09:07.013Z,30.72
2019-06-20T08:10:07.318Z,30.87
2019-06-20T08:11:06.518Z,30.48
2019-06-20T08:12:06.995Z,29.73
2019-06-20T08:13:06.559Z,28.98
2019-06-20T08:14:06.976Z,28.52
2019-06-20T08:15:19.282Z,28.14
2019-06-20T08:16:08.746Z,27.9
2019-06-20T08:17:07.035Z,27.98
2019-06-20T08:18:07.068Z,28.29
2019-06-20T08:19:06.788Z,28.42
2019-06-20T08:20:06.791Z,28.32
2019-06-20T08:21:07.029Z,28.23
2019-06-20T08:22:06.801Z,27.85
2019-06-20T08:23:07.079Z,27.26
2019-06-20T08:24:07.061Z,26.75
2019-06-20T08:25:08.099Z,26.13
2019-06-20T08:26:07.384Z,25.68
2019-06-20T08:27:09.218Z,25.58
2019-06-20T08:28:07.345Z,25.55
2019-06-20T08:29:23.998Z,25.47
2019-06-20T08:30:09.621Z,25.44
2019-06-20T08:31:07.388Z,25.63
2019-06-20T08:32:08.942Z,25.62
2019-06-20T08:33:14.595Z,25.68
2019-06-20T08:34:07.132Z,25.69
2019-06-20T08:35:07.297Z,25.68
2019-06-20T08:36:06.898Z,25.55
2019-06-20T08:37:06.727Z,25.63
2019-06-20T08:38:09.924Z,25.7
2019-06-20T08:39:07.212Z,25.75
2019-06-20T08:40:07.140Z,25.6
2019-06-20T08:41:08.975Z,25.47
2019-06-20T08:42:06.651Z,25.21
2019-06-20T08:43:08.708Z,25.1
2019-06-20T08:44:06.681Z,24.93
2019-06-20T08:45:08.691Z,24.77
2019-06-20T08:46:12.789Z,24.58
2019-06-20T08:47:08.587Z,24.43
2019-06-20T08:48:07.574Z,24.53
2019-06-20T08:49:08.450Z,24.88
2019-06-20T08:50:08.597Z,24.85
2019-06-20T08:51:06.941Z,25.38
2019-06-20T08:52:08.046Z,25.98
2019-06-20T08:53:08.452Z,26.7
2019-06-20T08:54:08.270Z,27.4
2019-06-20T08:55:08.192Z,28.17
2019-06-20T08:56:08.022Z,28.45
2019-06-20T08:57:08.784Z,28.54
2019-06-20T08:58:08.309Z,28.47
2019-06-20T08:59:20.656Z,28.38
2019-06-20T09:01:09.599Z,27.83
2019-06-20T09:02:06.824Z,27.63
2019-06-20T09:03:06.820Z,27.26
2019-06-20T09:04:07.027Z,27.02
2019-06-20T09:05:06.814Z,26.97
2019-06-20T09:06:07.025Z,26.99
2019-06-20T09:07:06.830Z,26.95
2019-06-20T09:08:10.846Z,27.03
2019-06-20T09:09:07.063Z,26.96
2019-06-20T09:10:08.982Z,26.96
2019-06-20T09:11:08.819Z,26.8
2019-06-20T09:12:07.334Z,26.73
2019-06-20T09:13:08.628Z,26.6
2019-06-20T09:14:08.882Z,26.47
2019-06-20T09:15:07.800Z,26.47
2019-06-20T09:16:07.877Z,26.19
2019-06-20T09:17:07.469Z,25.93
2019-06-20T09:18:07.509Z,25.66
2019-06-20T09:19:07.152Z,25.6
2019-06-20T09:20:07.777Z,25.38
2019-06-20T09:21:07.111Z,25.18
2019-06-20T09:22:07.486Z,25.16
2019-06-20T09:23:08.114Z,25.07
2019-06-20T09:24:07.410Z,25.07
2019-06-20T09:25:07.754Z,24.96
2019-06-20T09:26:08.620Z,24.8
2019-06-20T09:27:08.823Z,24.8
2019-06-20T09:28:07.505Z,24.81
2019-06-20T09:29:08.870Z,24.8
2019-06-20T09:30:08.301Z,24.88
2019-06-20T09:31:08.845Z,24.85
2019-06-20T09:32:07.174Z,24.99
2019-06-20T09:33:07.209Z,24.99
2019-06-20T09:34:09.877Z,25.08
2019-06-20T09:35:07.764Z,25.17
2019-06-20T09:36:08.871Z,25.41
2019-06-20T09:37:08.805Z,25.54
2019-06-20T09:38:08.056Z,25.62
2019-06-20T09:39:08.585Z,25.72
2019-06-20T09:40:08.272Z,25.84
2019-06-20T09:41:08.289Z,25.99
2019-06-20T09:42:07.769Z,25.99
2019-06-20T09:43:07.548Z,26.03
2019-06-20T09:44:07.945Z,26.13
2019-06-20T09:45:07.546Z,26.05
2019-06-20T09:46:07.468Z,26.15
2019-06-20T09:47:07.480Z,25.96
2019-06-20T09:48:07.638Z,25.83
2019-06-20T09:49:07.564Z,25.85
2019-06-20T09:50:07.480Z,25.77
2019-06-20T09:51:07.029Z,25.75
2019-06-20T09:52:07.497Z,25.63
2019-06-20T09:53:07.281Z,25.63
2019-06-20T09:54:07.522Z,25.54
2019-06-20T09:55:07.537Z,25.54
2019-06-20T09:56:07.262Z,25.47
2019-06-20T09:57:07.323Z,25.46
2019-06-20T09:58:07.556Z,25.44
2019-06-20T09:59:07.313Z,25.51
2019-06-20T10:00:14.907Z,25.47
2019-06-20T10:01:07.576Z,25.5
2019-06-20T10:02:07.545Z,25.51
2019-06-20T10:03:07.615Z,25.44
2019-06-20T10:04:07.758Z,25.36
2019-06-20T10:05:07.326Z,25.26
2019-06-20T10:06:17.801Z,25.26
2019-06-20T10:07:07.573Z,25.18
2019-06-20T10:08:07.346Z,25.31
2019-06-20T10:09:07.620Z,25.41
2019-06-20T10:10:07.358Z,25.44
2019-06-20T10:11:07.601Z,25.54
2019-06-20T10:12:07.656Z,25.58
2019-06-20T10:13:07.362Z,25.6
2019-06-20T10:14:07.636Z,25.62
2019-06-20T10:15:07.424Z,25.58
2019-06-20T10:16:07.691Z,25.65
2019-06-20T10:17:07.356Z,25.78
2019-06-20T10:18:07.411Z,25.68
2019-06-20T10:19:07.360Z,25.81
2019-06-20T10:20:07.648Z,26.02
2019-06-20T10:21:07.641Z,25.84
2019-06-20T10:22:07.369Z,25.83
2019-06-20T10:23:07.428Z,25.84
2019-06-20T10:24:07.643Z,25.75
2019-06-20T10:25:07.393Z,25.81
2019-06-20T10:26:07.635Z,25.77
2019-06-20T10:27:07.650Z,25.95
2019-06-20T10:28:07.397Z,25.95
2019-06-20T10:29:07.970Z,26.07
2019-06-20T10:30:18.374Z,26.18
2019-06-20T10:31:07.653Z,26.25
2019-06-20T10:32:07.422Z,26.4
2019-06-20T10:33:07.676Z,26.51
2019-06-20T10:34:07.734Z,26.55
2019-06-20T10:35:07.674Z,26.62
2019-06-20T10:36:07.725Z,26.62
2019-06-20T10:37:07.694Z,26.73
2019-06-20T10:38:07.230Z,26.77
2019-06-20T10:39:07.691Z,26.71
2019-06-20T10:40:07.699Z,26.74
2019-06-20T10:41:07.472Z,26.8
2019-06-20T10:42:07.718Z,27.02
2019-06-20T10:43:07.460Z,27.18
2019-06-20T10:44:07.810Z,27.36
2019-06-20T10:45:07.775Z,27.51
2019-06-20T10:46:07.475Z,27.39
2019-06-20T10:47:07.735Z,27.44
2019-06-20T10:48:07.505Z,27.4
2019-06-20T10:49:07.727Z,27.37
2019-06-20T10:50:07.750Z,27.32
2019-06-20T10:51:07.796Z,27.25
2019-06-20T10:52:07.517Z,27.1
2019-06-20T10:53:07.522Z,27
2019-06-20T10:54:07.520Z,26.99
2019-06-20T10:55:07.820Z,27
2019-06-20T10:56:07.797Z,26.84
2019-06-20T10:57:07.774Z,26.74
2019-06-20T10:58:07.792Z,26.73
2019-06-20T10:59:08.607Z,26.77
2019-06-20T11:00:07.794Z,26.71
2019-06-20T11:01:07.552Z,26.71
2019-06-20T11:02:09.822Z,26.99
2019-06-20T11:03:07.590Z,26.99
2019-06-20T11:04:07.575Z,27.21
2019-06-20T11:05:07.602Z,27.29
2019-06-20T11:06:07.857Z,27.36
2019-06-20T11:07:07.848Z,27.55
2019-06-20T11:08:07.622Z,27.6
2019-06-20T11:09:07.855Z,27.65
2019-06-20T11:10:07.848Z,27.73
2019-06-20T11:11:07.867Z,27.45
2019-06-20T11:12:07.604Z,27.22
2019-06-20T11:13:07.651Z,26.95
2019-06-20T11:14:07.632Z,26.75
2019-06-20T11:15:07.628Z,26.55
2019-06-20T11:16:07.867Z,26.34
2019-06-20T11:17:07.638Z,26.18
2019-06-20T11:18:07.979Z,26.25
2019-06-20T11:19:07.896Z,26.26
2019-06-20T11:20:07.659Z,26.25
2019-06-20T11:21:07.896Z,26.09
2019-06-20T11:22:07.687Z,25.88
2019-06-20T11:23:07.913Z,25.93
2019-06-20T11:24:07.935Z,25.68
2019-06-20T11:25:07.950Z,25.48
2019-06-20T11:26:07.675Z,25.26
2019-06-20T11:27:07.940Z,25.01
2019-06-20T11:28:07.772Z,24.89
2019-06-20T11:29:08.375Z,24.5
2019-06-20T11:30:07.973Z,24.3
2019-06-20T11:31:07.965Z,24.13
2019-06-20T11:32:07.465Z,23.92
2019-06-20T11:33:07.548Z,23.93
2019-06-20T11:34:07.955Z,23.62
2019-06-20T11:35:07.972Z,23.41
2019-06-20T11:36:07.713Z,23.37
2019-06-20T11:37:07.989Z,23.27
2019-06-20T11:38:07.732Z,23.43
2019-06-20T11:39:07.967Z,23.54
2019-06-20T11:40:07.983Z,23.69
2019-06-20T11:41:08.053Z,23.78
2019-06-20T11:42:07.998Z,23.98
2019-06-20T11:43:08.189Z,24.23
2019-06-20T11:44:07.998Z,24.48
2019-06-20T11:45:07.765Z,24.65
2019-06-20T11:46:07.755Z,24.84
2019-06-20T11:47:08.066Z,24.85
2019-06-20T11:48:07.581Z,25.1
2019-06-20T11:49:07.596Z,25.06
2019-06-20T11:50:07.817Z,25.17
2019-06-20T11:51:07.780Z,25.38
2019-06-20T11:52:08.028Z,25.43
2019-06-20T11:53:07.799Z,25.43
2019-06-20T11:54:08.031Z,25.41
2019-06-20T11:55:08.049Z,25.23
2019-06-20T11:56:07.803Z,25.23
2019-06-20T11:57:08.064Z,25.21
2019-06-20T11:58:07.598Z,25.29
2019-06-20T11:59:07.817Z,25.29
2019-06-20T12:00:08.098Z,25.33
2019-06-20T12:01:08.861Z,25.29
2019-06-20T12:02:07.822Z,25.31
2019-06-20T12:03:07.853Z,25.33
2019-06-20T12:04:09.468Z,25.31
2019-06-20T12:05:07.821Z,25.44
2019-06-20T12:06:07.605Z,25.48
2019-06-20T12:07:07.599Z,25.44
2019-06-20T12:08:07.869Z,25.38
2019-06-20T12:09:07.615Z,25.32
2019-06-20T12:10:07.942Z,25.29
2019-06-20T12:11:07.621Z,25.44
2019-06-20T12:12:07.928Z,25.48
2019-06-20T12:13:07.915Z,25.62
2019-06-20T12:14:08.180Z,25.68
2019-06-20T12:15:11.776Z,25.75
2019-06-20T12:16:07.654Z,25.83
2019-06-20T12:17:07.890Z,25.95
2019-06-20T12:18:08.136Z,25.95
2019-06-20T12:19:08.139Z,26.07
2019-06-20T12:20:07.919Z,25.96
2019-06-20T12:21:08.052Z,25.99
2019-06-20T12:22:08.218Z,25.7
2019-06-20T12:23:08.193Z,25.65
2019-06-20T12:24:10.928Z,25.65
2019-06-20T12:25:07.909Z,25.65
2019-06-20T12:26:08.170Z,25.77
2019-06-20T12:27:08.178Z,25.9
2019-06-20T12:28:07.943Z,26.09
2019-06-20T12:29:07.962Z,26.29
2019-06-20T12:30:08.197Z,26.44
2019-06-20T12:31:23.665Z,26.43
2019-06-20T12:32:10.042Z,26.37
2019-06-20T12:33:07.950Z,26.44
2019-06-20T12:34:08.277Z,26.33
2019-06-20T12:35:07.744Z,26.18
2019-06-20T12:36:08.230Z,26.06
2019-06-20T12:37:08.232Z,26.09
2019-06-20T12:38:08.271Z,26.13
2019-06-20T12:39:07.777Z,26.18
2019-06-20T12:40:08.030Z,26.16
2019-06-20T12:41:07.997Z,26.05
2019-06-20T12:42:08.037Z,25.98
2019-06-20T12:43:07.999Z,25.81
2019-06-20T12:44:08.286Z,25.65
2019-06-20T12:45:08.015Z,25.63
2019-06-20T12:46:08.432Z,25.68
2019-06-20T12:47:08.042Z,25.68
2019-06-20T12:48:08.057Z,25.65
2019-06-20T12:49:09.070Z,25.65
2019-06-20T12:50:08.447Z,25.63
2019-06-20T12:51:08.247Z,25.68
2019-06-20T12:52:08.212Z,25.8
2019-06-20T12:53:08.108Z,25.98
2019-06-20T12:54:08.130Z,26.06
2019-06-20T12:55:08.427Z,26.19
2019-06-20T12:56:08.109Z,26.21